Time;durP1;ratioP1;P1;durP2;ratioP2;P2;SDS_P1;SDS_P2;PMS_P1;PMS_P2;Temp;Humidity;BMP_temperature;BMP_pressure;BME280_temperature;BME280_humidity;BME280_pressure;Samples;Min_cycle;Max_cycle;Signal;HPM_P1;HPM_P2
2021/09/26 00:02:41;;;;;;;2.13;1.80;;;;;;;10.58;84.71;101798.50;6267123;28;20285;-71
2021/09/26 00:05:48;;;;;;;4.55;1.70;;;;;;;10.57;84.30;101808.59;6266259;28;20496;-72
2021/09/26 00:08:53;;;;;;;2.83;2.03;;;;;;;10.66;83.68;101801.94;6267501;28;20185;-72
2021/09/26 00:11:57;;;;;;;2.00;2.00;;;;;;;10.58;83.62;101814.88;6267414;28;20188;-71
2021/09/26 00:15:02;;;;;;;1.77;1.70;;;;;;;10.45;84.17;101804.66;6267167;28;20192;-72
2021/09/26 00:18:07;;;;;;;1.70;1.60;;;;;;;10.61;83.79;101819.94;6266589;28;20208;-72
2021/09/26 00:21:12;;;;;;;2.53;1.55;;;;;;;10.42;84.20;101823.31;6265818;28;20465;-71
2021/09/26 00:24:17;;;;;;;1.90;1.85;;;;;;;10.54;83.61;101829.94;6265730;28;20373;-72
2021/09/26 00:27:21;;;;;;;4.15;2.03;;;;;;;10.48;84.12;101825.25;6266696;28;20189;-72
2021/09/26 00:30:25;;;;;;;2.58;1.98;;;;;;;10.54;83.82;101835.41;6248411;28;20200;-71
2021/09/26 00:33:30;;;;;;;1.52;1.52;;;;;;;10.44;83.74;101829.41;6266924;28;20253;-71
2021/09/26 00:36:36;;;;;;;1.85;1.85;;;;;;;10.32;84.59;101828.22;6266458;28;20212;-71
2021/09/26 00:39:40;;;;;;;3.05;1.90;;;;;;;10.30;84.88;101833.00;6265451;28;20189;-71
2021/09/26 00:42:44;;;;;;;2.80;2.33;;;;;;;10.19;85.67;101837.09;6265313;28;20464;-71
2021/09/26 00:45:49;;;;;;;4.15;1.90;;;;;;;10.30;85.01;101836.59;6266282;28;20184;-72
2021/09/26 00:48:53;;;;;;;3.17;2.10;;;;;;;10.40;84.90;101849.94;6266606;28;20185;-72
2021/09/26 00:51:59;;;;;;;7.15;2.00;;;;;;;10.41;84.70;101851.63;6265179;28;20201;-72
2021/09/26 00:55:04;;;;;;;2.22;2.10;;;;;;;10.24;84.66;101858.34;6265092;28;20379;-72
2021/09/26 00:58:09;;;;;;;1.85;1.83;;;;;;;10.13;85.44;101853.34;6264663;28;20212;-71
2021/09/26 01:01:13;;;;;;;3.60;1.63;;;;;;;10.05;86.53;101857.84;6265517;28;20201;-71
2021/09/26 01:04:19;;;;;;;1.83;1.50;;;;;;;10.01;86.41;101859.25;6264867;28;20228;-72
2021/09/26 01:07:32;;;;;;;6.60;1.75;;;;;;;10.18;86.36;101864.53;6265828;28;20195;-71
2021/09/26 01:10:44;;;;;;;3.65;1.83;;;;;;;10.18;85.13;101867.25;6264796;28;20489;-71
2021/09/26 01:14:02;;;;;;;9.65;2.15;;;;;;;9.93;87.84;101878.44;6266074;28;20185;-71
2021/09/26 01:17:11;;;;;;;3.13;1.98;;;;;;;9.83;87.97;101880.59;6265768;28;20220;-71
2021/09/26 01:20:40;;;;;;;2.03;1.88;;;;;;;9.80;87.86;101885.56;6264548;28;20185;-71
2021/09/26 01:24:15;;;;;;;7.60;1.75;;;;;;;9.87;89.53;101895.53;6265782;28;20208;-72
2021/09/26 01:27:35;;;;;;;1.85;1.75;;;;;;;9.86;89.16;101896.56;6240467;28;20542;-72
2021/09/26 01:30:48;;;;;;;1.60;1.50;;;;;;;9.98;88.77;101895.09;6264328;28;20405;-71
2021/09/26 01:33:56;;;;;;;1.70;1.60;;;;;;;10.00;88.03;101913.97;6265404;28;20189;-72
2021/09/26 01:37:07;;;;;;;1.63;1.52;;;;;;;9.99;88.30;101910.41;6263596;28;20539;-71
2021/09/26 01:40:16;;;;;;;2.10;2.00;;;;;;;9.90;88.55;101913.41;6265347;28;20186;-71
2021/09/26 01:43:26;;;;;;;2.55;1.67;;;;;;;9.90;88.55;101919.72;6265376;28;20248;-71
2021/09/26 01:46:37;;;;;;;1.92;1.70;;;;;;;9.81;88.21;101920.00;6264466;28;20193;-72
2021/09/26 01:49:45;;;;;;;1.60;1.60;;;;;;;9.82;88.38;101919.78;6264772;28;20217;-71
2021/09/26 01:52:52;;;;;;;3.08;2.00;;;;;;;9.93;87.60;101934.84;6263765;28;20498;-72
2021/09/26 01:55:57;;;;;;;3.35;2.10;;;;;;;9.93;86.67;101946.59;6264693;28;20192;-71
2021/09/26 01:59:02;;;;;;;2.55;2.10;;;;;;;9.79;87.41;101944.69;6264340;28;20240;-71
2021/09/26 02:02:09;;;;;;;1.85;1.85;;;;;;;9.55;88.86;101942.19;6263683;28;20232;-71
2021/09/26 02:05:13;;;;;;;1.77;1.77;;;;;;;9.66;88.58;101960.81;6263450;28;20185;-71
2021/09/26 02:08:19;;;;;;;1.98;1.60;;;;;;;9.66;87.84;101955.38;6263298;28;20481;-71
2021/09/26 02:11:23;;;;;;;1.85;1.75;;;;;;;9.72;87.30;101957.38;6262984;28;20249;-72
2021/09/26 02:14:29;;;;;;;2.33;2.03;;;;;;;9.71;86.86;101952.06;6263230;28;20207;-71
2021/09/26 02:17:37;;;;;;;1.95;1.55;;;;;;;9.79;86.87;101955.59;6264177;28;20240;-72
2021/09/26 02:20:42;;;;;;;1.92;1.92;;;;;;;9.56;88.39;101971.13;6263447;28;20189;-72
2021/09/26 02:23:47;;;;;;;5.85;1.90;;;;;;;9.67;87.65;101967.97;6262967;28;20185;-72
2021/09/26 02:26:51;;;;;;;2.03;1.90;;;;;;;9.54;87.53;101978.63;6262881;28;20532;-71
2021/09/26 02:29:55;;;;;;;1.70;1.70;;;;;;;9.44;88.31;101981.63;6263274;28;20414;-72
2021/09/26 02:33:01;;;;;;;2.22;2.03;;;;;;;9.46;88.01;101986.88;6264145;28;20199;-72
2021/09/26 02:36:07;;;;;;;2.15;2.05;;;;;;;9.42;88.54;101980.09;6262734;28;20191;-72
2021/09/26 02:39:13;;;;;;;1.98;1.98;;;;;;;9.28;89.39;101994.50;6262593;28;20208;-72
2021/09/26 02:42:30;;;;;;;2.05;1.95;;;;;;;9.28;89.53;102002.66;6262540;28;20381;-72
2021/09/26 02:45:40;;;;;;;2.72;1.77;;;;;;;9.43;88.63;102009.03;6263576;28;20259;-72
2021/09/26 02:48:47;;;;;;;1.95;1.95;;;;;;;9.50;88.43;102009.97;6262405;28;20375;-72
2021/09/26 02:51:52;;;;;;;4.60;1.90;;;;;;;9.50;88.54;102020.88;6263460;28;20184;-72
2021/09/26 02:54:57;;;;;;;2.15;1.95;;;;;;;9.45;88.83;102028.75;6263368;28;20192;-72
2021/09/26 02:58:02;;;;;;;2.20;2.10;;;;;;;9.60;88.42;102031.56;6262132;28;20215;-72
2021/09/26 03:01:07;;;;;;;5.20;2.08;;;;;;;9.61;87.60;102028.63;6263321;28;20200;-72
2021/09/26 03:04:13;;;;;;;2.03;1.90;;;;;;;9.38;88.76;102033.22;6263852;28;20243;-72
2021/09/26 03:07:17;;;;;;;2.10;2.10;;;;;;;9.46;87.81;102044.06;6263464;28;20220;-72
2021/09/26 03:10:22;;;;;;;2.13;1.92;;;;;;;9.49;86.82;102051.91;6261875;28;20238;-72
2021/09/26 03:13:26;;;;;;;4.18;1.90;;;;;;;9.44;87.21;102048.88;6262347;28;20193;-72
2021/09/26 03:16:31;;;;;;;1.92;1.83;;;;;;;9.41;87.83;102060.13;6261881;28;20192;-72
2021/09/26 03:19:37;;;;;;;2.10;2.10;;;;;;;9.41;87.63;102054.66;6262756;28;20217;-72
2021/09/26 03:22:41;;;;;;;4.25;1.98;;;;;;;9.56;86.25;102058.31;6262090;28;20217;-72
2021/09/26 03:25:45;;;;;;;2.45;1.80;;;;;;;9.50;86.63;102059.03;6263202;28;20184;-72
2021/09/26 03:28:49;;;;;;;2.97;2.25;;;;;;;9.65;85.37;102068.13;6263091;28;20252;-72
2021/09/26 03:31:53;;;;;;;1.98;1.77;;;;;;;9.54;84.48;102071.28;6262721;28;20188;-72
2021/09/26 03:34:59;;;;;;;2.70;1.70;;;;;;;9.39;85.55;102062.19;6261553;28;20248;-72
2021/09/26 03:38:03;;;;;;;2.88;1.63;;;;;;;9.40;86.48;102063.84;6262428;28;20219;-72
2021/09/26 03:41:07;;;;;;;2.13;1.98;;;;;;;9.32;86.64;102074.81;6262622;28;20251;-72
2021/09/26 03:44:12;;;;;;;1.98;1.88;;;;;;;9.55;84.91;102070.25;6262895;28;20185;-72
2021/09/26 03:47:16;;;;;;;2.10;2.00;;;;;;;9.45;84.88;102077.78;6261553;28;20192;-72
2021/09/26 03:50:21;;;;;;;1.73;1.73;;;;;;;9.44;84.30;102089.72;6261621;28;20216;-71
2021/09/26 03:53:25;;;;;;;4.53;1.80;;;;;;;9.48;84.13;102077.44;6262427;28;20284;-72
2021/09/26 03:56:30;;;;;;;3.42;1.80;;;;;;;9.37;84.27;102080.59;6262809;28;20206;-72
2021/09/26 03:59:34;;;;;;;3.10;1.90;;;;;;;9.19;84.35;102085.44;6262378;28;20212;-72
2021/09/26 04:02:38;;;;;;;1.92;1.83;;;;;;;9.11;84.71;102085.47;6261690;28;20512;-72
2021/09/26 04:05:44;;;;;;;2.08;1.80;;;;;;;9.11;84.43;102088.22;6261343;28;20221;-72
2021/09/26 04:08:48;;;;;;;2.00;1.95;;;;;;;9.25;84.68;102087.44;6262267;28;20260;-72
2021/09/26 04:11:52;;;;;;;11.05;1.83;;;;;;;9.31;83.97;102097.63;6262596;28;20185;-72
2021/09/26 04:14:56;;;;;;;1.95;1.77;;;;;;;9.28;83.49;102093.38;6261563;28;20190;-72
2021/09/26 04:18:00;;;;;;;7.13;1.80;;;;;;;9.42;83.77;102092.63;6262004;28;20219;-72
2021/09/26 04:21:06;;;;;;;3.35;1.83;;;;;;;9.38;83.94;102098.59;6262122;28;20185;-72
2021/09/26 04:24:12;;;;;;;9.15;2.17;;;;;;;9.17;83.81;102101.09;6261919;28;20191;-72
2021/09/26 04:27:17;;;;;;;1.92;1.83;;;;;;;8.95;86.51;102107.31;6261893;28;20191;-72
2021/09/26 04:30:22;;;;;;;1.60;1.50;;;;;;;9.09;85.96;102110.16;6262346;28;20206;-72
2021/09/26 04:33:26;;;;;;;5.28;1.95;;;;;;;9.30;84.61;102110.41;6264995;28;20189;-72
2021/09/26 04:36:31;;;;;;;2.58;2.03;;;;;;;9.28;84.49;102108.88;6266477;28;20252;-72
2021/09/26 04:39:39;;;;;;;2.13;2.03;;;;;;;9.29;83.69;102113.31;6265822;28;20219;-72
2021/09/26 04:42:43;;;;;;;2.17;1.90;;;;;;;9.25;83.65;102104.63;6266414;28;20291;-72
2021/09/26 04:45:47;;;;;;;6.75;2.40;;;;;;;9.31;83.39;102103.06;6265439;28;20216;-72
2021/09/26 04:48:51;;;;;;;2.17;1.95;;;;;;;9.23;83.85;102114.00;6266258;28;20195;-72
2021/09/26 04:51:57;;;;;;;1.70;1.70;;;;;;;9.21;83.98;102110.63;6265560;28;20247;-72
2021/09/26 04:55:01;;;;;;;3.17;2.20;;;;;;;9.25;82.85;102120.13;6265944;28;20185;-72
2021/09/26 04:58:06;;;;;;;2.05;1.98;;;;;;;9.25;83.04;102114.66;6266176;28;20245;-72
2021/09/26 05:01:11;;;;;;;4.45;2.08;;;;;;;9.24;82.59;102113.84;6266031;28;20264;-72
2021/09/26 05:04:16;;;;;;;1.77;1.67;;;;;;;9.36;82.77;102127.91;6264983;28;20462;-71
2021/09/26 05:07:21;;;;;;;2.05;1.95;;;;;;;9.26;82.99;102133.56;6266147;28;20248;-72
2021/09/26 05:10:25;;;;;;;8.70;2.72;;;;;;;9.13;83.76;102149.63;6266127;28;20193;-72
2021/09/26 05:13:30;;;;;;;2.15;1.90;;;;;;;9.18;83.88;102146.38;6265671;28;20193;-72
2021/09/26 05:16:34;;;;;;;3.95;2.10;;;;;;;9.25;83.61;102142.75;6264974;28;20184;-72
2021/09/26 05:19:38;;;;;;;2.40;2.10;;;;;;;9.31;83.29;102157.56;6265361;28;20215;-72
2021/09/26 05:22:44;;;;;;;7.05;2.00;;;;;;;9.25;83.70;102152.81;6264486;28;20460;-72
2021/09/26 05:25:48;;;;;;;2.35;2.08;;;;;;;9.24;83.68;102162.00;6265805;28;20201;-71
2021/09/26 05:28:52;;;;;;;6.20;2.00;;;;;;;9.31;83.63;102157.56;6265601;28;20234;-72
2021/09/26 05:31:56;;;;;;;2.40;2.00;;;;;;;9.08;85.23;102162.06;6265230;28;20209;-72
2021/09/26 05:35:00;;;;;;;2.35;1.98;;;;;;;9.25;83.66;102163.69;6265575;28;20211;-72
2021/09/26 05:38:06;;;;;;;1.98;1.95;;;;;;;9.25;84.40;102171.88;6264140;28;20476;-71
2021/09/26 05:41:11;;;;;;;3.30;1.90;;;;;;;9.11;84.32;102178.06;6264402;28;20335;-72
2021/09/26 05:44:15;;;;;;;6.15;2.00;;;;;;;9.28;83.86;102175.09;6264146;28;20185;-72
2021/09/26 05:47:19;;;;;;;4.50;1.95;;;;;;;9.23;84.03;102182.09;6264904;28;20262;-71
2021/09/26 05:50:23;;;;;;;2.25;1.85;;;;;;;9.32;84.39;102181.06;6264947;28;20189;-72
2021/09/26 05:53:29;;;;;;;1.98;1.92;;;;;;;9.27;83.90;102186.19;6265149;28;20185;-72
2021/09/26 05:56:33;;;;;;;2.15;2.05;;;;;;;9.34;85.77;102184.44;6263809;28;20189;-72
2021/09/26 05:59:38;;;;;;;2.50;2.00;;;;;;;9.37;85.10;102186.81;6264555;28;20212;-72
2021/09/26 06:02:44;;;;;;;3.53;1.98;;;;;;;9.40;85.43;102191.88;6263295;28;20264;-72
2021/09/26 06:05:49;;;;;;;2.13;1.88;;;;;;;9.43;85.34;102205.16;6263398;28;20185;-72
2021/09/26 06:08:54;;;;;;;1.90;1.90;;;;;;;9.40;86.37;102200.06;6264865;28;20255;-72
2021/09/26 06:12:00;;;;;;;1.77;1.77;;;;;;;9.38;86.58;102197.53;6264682;28;20196;-72
2021/09/26 06:15:05;;;;;;;2.08;1.98;;;;;;;9.48;86.13;102201.91;6263267;28;20374;-71
2021/09/26 06:18:13;;;;;;;1.98;1.88;;;;;;;9.57;86.16;102215.34;6264436;28;20185;-72
2021/09/26 06:21:17;;;;;;;2.20;2.00;;;;;;;9.58;85.73;102213.47;6264081;28;20340;-72
2021/09/26 06:24:23;;;;;;;1.85;1.73;;;;;;;9.39;88.28;102214.72;6264352;28;20191;-72
2021/09/26 06:27:27;;;;;;;1.85;1.75;;;;;;;9.45;88.13;102222.16;6264212;28;20316;-72
2021/09/26 06:30:31;;;;;;;2.35;2.25;;;;;;;9.56;87.59;102220.94;6263919;28;20220;-71
2021/09/26 06:33:40;;;;;;;1.95;1.80;;;;;;;9.59;87.12;102232.34;6263699;28;20192;-72
2021/09/26 06:36:44;;;;;;;2.30;2.20;;;;;;;9.78;87.39;102231.94;6262930;28;20207;-71
2021/09/26 06:39:53;;;;;;;1.70;1.70;;;;;;;9.81;87.34;102237.00;6263562;28;20271;-71
2021/09/26 06:42:58;;;;;;;3.33;1.80;;;;;;;9.80;87.17;102238.03;6262547;28;20291;-71
2021/09/26 06:46:02;;;;;;;2.55;2.00;;;;;;;9.91;86.34;102236.81;6263557;28;20185;-71
2021/09/26 06:49:06;;;;;;;1.90;1.85;;;;;;;9.98;86.21;102237.78;6262458;28;20185;-71
2021/09/26 06:52:12;;;;;;;2.38;2.10;;;;;;;10.07;85.21;102253.91;6263107;28;20207;-71
2021/09/26 06:55:17;;;;;;;3.08;2.10;;;;;;;10.18;85.45;102254.53;6263473;28;20239;-71
2021/09/26 06:58:21;;;;;;;2.72;2.13;;;;;;;10.23;85.61;102252.97;6262264;28;20261;-71
2021/09/26 07:01:26;;;;;;;4.28;1.80;;;;;;;10.34;86.70;102249.00;6262230;28;20547;-71
2021/09/26 07:04:30;;;;;;;2.78;1.95;;;;;;;10.40;84.85;102256.47;6262690;28;20259;-71
2021/09/26 07:07:34;;;;;;;5.93;1.83;;;;;;;10.49;84.39;102258.09;6262850;28;20191;-71
2021/09/26 07:10:40;;;;;;;1.83;1.83;;;;;;;10.51;85.57;102251.41;6261867;28;20424;-71
2021/09/26 07:13:44;;;;;;;2.65;1.90;;;;;;;10.66;85.63;102256.91;6262236;28;20429;-71
2021/09/26 07:16:48;;;;;;;1.83;1.83;;;;;;;10.65;85.14;102263.44;6263068;28;20256;-71
2021/09/26 07:19:53;;;;;;;2.05;2.00;;;;;;;10.73;85.17;102271.56;6262744;28;20219;-71
2021/09/26 07:22:58;;;;;;;1.80;1.80;;;;;;;10.76;84.82;102276.63;6262870;28;20252;-71
2021/09/26 07:26:03;;;;;;;2.17;2.10;;;;;;;10.78;86.06;102263.66;6263102;28;20184;-71
2021/09/26 07:29:10;;;;;;;2.85;2.28;;;;;;;10.85;86.42;102274.69;6262668;28;20185;-71
2021/09/26 07:32:16;;;;;;;2.90;1.67;;;;;;;10.87;86.30;102278.91;6262948;28;20188;-71
2021/09/26 07:35:20;;;;;;;2.35;2.00;;;;;;;10.84;86.86;102271.09;6261595;28;20545;-71
2021/09/26 07:38:25;;;;;;;2.50;1.90;;;;;;;10.99;85.32;102282.91;6262162;28;20189;-72
2021/09/26 07:41:30;;;;;;;2.17;2.08;;;;;;;10.98;85.77;102280.38;6262787;28;20209;-71
2021/09/26 07:44:34;;;;;;;2.08;2.00;;;;;;;11.03;86.22;102284.25;6262549;28;20247;-71
2021/09/26 07:47:39;;;;;;;1.70;1.70;;;;;;;11.17;83.88;102286.13;6262344;28;20220;-71
2021/09/26 07:50:43;;;;;;;1.95;1.60;;;;;;;11.22;83.76;102300.09;6262295;28;20189;-71
2021/09/26 07:53:47;;;;;;;2.72;1.52;;;;;;;11.32;83.22;102295.19;6261219;28;20495;-72
2021/09/26 07:56:53;;;;;;;1.23;1.23;;;;;;;11.39;82.57;102299.94;6261955;28;20279;-71
2021/09/26 07:59:58;;;;;;;1.38;1.15;;;;;;;11.49;81.27;102303.22;6261113;28;20216;-72
2021/09/26 08:03:02;;;;;;;1.25;1.25;;;;;;;11.59;79.43;102301.06;6262511;28;20231;-71
2021/09/26 08:06:07;;;;;;;1.08;1.08;;;;;;;11.68;78.58;102299.94;6261302;28;20191;-71
2021/09/26 08:09:11;;;;;;;0.98;0.88;;;;;;;11.76;77.09;102297.16;6265213;28;20482;-71
2021/09/26 08:12:18;;;;;;;4.30;0.90;;;;;;;11.89;75.67;102300.91;6267349;28;20189;-71
2021/09/26 08:15:22;;;;;;;1.08;1.00;;;;;;;11.94;76.03;102316.72;6266954;28;20246;-71
2021/09/26 08:18:26;;;;;;;1.38;0.88;;;;;;;12.07;75.21;102318.81;6266902;28;20192;-70
2021/09/26 08:21:30;;;;;;;0.80;0.80;;;;;;;12.19;72.35;102320.88;6266680;28;20323;-71
2021/09/26 08:24:35;;;;;;;2.22;1.05;;;;;;;12.24;73.75;102317.53;6266596;28;20263;-71
2021/09/26 08:27:41;;;;;;;0.75;0.75;;;;;;;12.23;73.74;102327.63;6266826;28;20270;-70
2021/09/26 08:30:45;;;;;;;0.70;0.70;;;;;;;12.30;71.55;102328.56;6265314;28;20351;-70
2021/09/26 08:33:50;;;;;;;1.08;0.80;;;;;;;12.33;71.99;102322.72;6266173;28;20184;-73
2021/09/26 08:36:54;;;;;;;1.55;0.60;;;;;;;12.40;73.14;102329.09;6265151;28;20356;-73
2021/09/26 08:39:58;;;;;;;0.60;0.60;;;;;;;12.53;70.67;102321.03;6265050;28;20192;-71
2021/09/26 08:43:03;;;;;;;0.65;0.65;;;;;;;12.51;70.83;102325.88;6264790;28;20281;-71
2021/09/26 08:46:14;;;;;;;1.05;1.05;;;;;;;12.55;70.85;102324.44;6265750;28;20191;-71
2021/09/26 08:49:18;;;;;;;0.90;0.90;;;;;;;12.63;71.65;102328.09;6265648;28;20263;-72
2021/09/26 08:52:22;;;;;;;1.17;0.90;;;;;;;12.71;70.41;102327.97;6265915;28;20256;-73
2021/09/26 08:55:26;;;;;;;1.48;0.80;;;;;;;12.78;69.92;102331.63;6265283;28;20185;-73
2021/09/26 08:58:34;;;;;;;1.50;0.73;;;;;;;12.83;69.43;102337.38;6265607;28;20185;-73
2021/09/26 09:01:38;;;;;;;1.27;0.80;;;;;;;12.78;70.48;102348.06;6264352;28;20296;-71
2021/09/26 09:04:43;;;;;;;1.83;0.70;;;;;;;12.83;70.23;102338.22;6265148;28;20244;-72
2021/09/26 09:08:03;;;;;;;0.75;0.75;;;;;;;12.96;69.38;102340.22;6264180;28;20217;-72
2021/09/26 09:11:09;;;;;;;1.00;1.00;;;;;;;13.07;69.04;102337.00;6264549;28;20250;-71
2021/09/26 09:14:14;;;;;;;0.60;0.60;;;;;;;13.11;69.12;102332.81;6264420;28;20411;-71
2021/09/26 09:17:31;;;;;;;0.60;0.60;;;;;;;13.17;68.28;102337.50;6265287;28;20185;-72
2021/09/26 09:20:35;;;;;;;1.13;0.88;;;;;;;13.21;68.47;102344.28;6264192;28;20480;-71
2021/09/26 09:23:39;;;;;;;0.60;0.60;;;;;;;13.14;68.40;102349.72;6264576;28;20288;-71
2021/09/26 09:26:46;;;;;;;0.82;0.60;;;;;;;13.25;68.65;102348.31;6263874;28;20459;-71
2021/09/26 09:29:51;;;;;;;0.70;0.70;;;;;;;13.29;69.17;102341.41;6263864;28;20382;-72
2021/09/26 09:32:56;;;;;;;0.70;0.70;;;;;;;13.36;68.86;102347.78;6264702;28;20188;-71
2021/09/26 09:36:00;;;;;;;0.70;0.70;;;;;;;13.54;66.44;102345.38;6264648;28;20189;-71
2021/09/26 09:39:06;;;;;;;0.77;0.77;;;;;;;13.65;65.68;102342.09;6264214;28;20189;-72
2021/09/26 09:42:18;;;;;;;0.77;0.77;;;;;;;13.64;66.11;102340.38;6264546;28;20219;-71
2021/09/26 09:45:26;;;;;;;3.30;0.70;;;;;;;13.63;65.41;102344.19;6264713;28;20231;-72
2021/09/26 09:48:31;;;;;;;0.80;0.80;;;;;;;13.60;66.43;102355.56;6264898;28;20231;-71
2021/09/26 09:51:37;;;;;;;1.95;0.90;;;;;;;13.64;65.75;102345.88;6263579;28;20377;-72
2021/09/26 09:54:41;;;;;;;2.75;0.93;;;;;;;13.66;66.95;102353.91;6263439;28;20286;-72
2021/09/26 09:57:46;;;;;;;0.90;0.90;;;;;;;13.66;66.16;102343.78;6264281;28;20185;-71
2021/09/26 10:00:54;;;;;;;1.15;0.82;;;;;;;13.81;64.96;102349.97;6264498;28;20296;-72
2021/09/26 10:03:59;;;;;;;1.08;0.80;;;;;;;13.98;63.11;102358.75;6263595;28;20322;-72
2021/09/26 10:07:18;;;;;;;0.70;0.70;;;;;;;14.06;62.70;102352.25;6264207;28;20551;-73
2021/09/26 10:10:22;;;;;;;0.73;0.73;;;;;;;13.98;66.20;102349.66;6263363;28;20487;-71
2021/09/26 10:13:27;;;;;;;2.60;0.80;;;;;;;14.12;63.22;102348.69;6263374;28;20258;-72
2021/09/26 10:16:33;;;;;;;0.60;0.60;;;;;;;14.19;63.54;102344.94;6263171;28;20371;-72
2021/09/26 10:19:38;;;;;;;0.95;0.70;;;;;;;14.29;61.25;102353.63;6264031;28;20184;-72
2021/09/26 10:22:42;;;;;;;1.30;0.90;;;;;;;14.34;61.62;102348.41;6263954;28;20288;-72
2021/09/26 10:25:46;;;;;;;0.57;0.57;;;;;;;14.36;61.69;102350.94;6262779;28;20427;-72
2021/09/26 10:28:53;;;;;;;0.60;0.60;;;;;;;14.45;60.22;102355.19;6263908;28;20248;-72
2021/09/26 10:32:01;;;;;;;0.80;0.80;;;;;;;14.50;60.66;102352.69;6263462;28;20196;-72
2021/09/26 10:35:07;;;;;;;0.77;0.77;;;;;;;14.65;60.76;102350.63;6263687;28;20186;-72
2021/09/26 10:38:11;;;;;;;0.80;0.80;;;;;;;14.62;63.54;102351.03;6263349;28;20192;-72
2021/09/26 10:41:16;;;;;;;2.47;0.68;;;;;;;14.80;58.93;102347.69;6263295;28;20185;-72
2021/09/26 10:44:26;;;;;;;2.40;0.43;;;;;;;15.04;56.38;102356.19;6264030;28;20402;-72
2021/09/26 10:47:33;;;;;;;0.60;0.60;;;;;;;15.07;58.28;102350.25;6263377;28;20189;-72
2021/09/26 10:50:39;;;;;;;0.75;0.75;;;;;;;15.26;52.86;102353.22;6262235;28;20476;-72
2021/09/26 10:54:26;;;;;;;2.13;0.68;;;;;;;15.41;54.32;102359.34;6263193;28;20189;-72
2021/09/26 10:57:31;;;;;;;0.73;0.73;;;;;;;15.35;54.75;102346.47;6262324;28;20500;-73
2021/09/26 11:00:38;;;;;;;0.80;0.80;;;;;;;15.40;57.30;102346.66;6246018;28;20207;-73
2021/09/26 11:03:44;;;;;;;0.80;0.80;;;;;;;15.44;56.55;102358.94;6261605;28;20272;-73
2021/09/26 11:06:48;;;;;;;0.68;0.68;;;;;;;15.50;56.84;102355.38;6262193;28;20263;-73
2021/09/26 11:09:52;;;;;;;4.78;1.02;;;;;;;15.60;56.57;102355.78;6262000;28;20217;-73
2021/09/26 11:13:08;;;;;;;0.80;0.80;;;;;;;15.64;57.57;102351.53;6262858;28;20245;-73
2021/09/26 11:16:15;;;;;;;0.68;0.65;;;;;;;15.67;55.09;102340.09;6262635;28;20189;-72
2021/09/26 11:19:22;;;;;;;0.70;0.70;;;;;;;15.69;52.99;102337.16;6261330;28;20208;-72
2021/09/26 11:22:27;;;;;;;0.70;0.70;;;;;;;15.66;55.38;102350.25;6261737;28;20502;-72
2021/09/26 11:26:06;;;;;;;0.70;0.70;;;;;;;15.62;55.22;102334.41;6264443;28;20254;-72
2021/09/26 11:29:10;;;;;;;0.63;0.63;;;;;;;15.71;53.92;102346.88;6261122;28;20248;-72
2021/09/26 11:32:29;;;;;;;0.80;0.68;;;;;;;15.98;51.91;102345.75;6261852;28;20220;-72
2021/09/26 11:35:39;;;;;;;0.70;0.70;;;;;;;15.92;55.00;102345.78;6261127;28;20226;-71
2021/09/26 11:38:43;;;;;;;1.20;0.63;;;;;;;15.98;55.01;102354.00;6262403;28;20185;-71
2021/09/26 11:41:48;;;;;;;0.73;0.73;;;;;;;15.98;55.44;102348.50;6261503;28;20208;-73
2021/09/26 11:44:52;;;;;;;0.50;0.50;;;;;;;16.16;50.77;102351.41;6262147;28;20212;-73
2021/09/26 11:48:02;;;;;;;0.90;0.90;;;;;;;16.23;50.74;102352.22;6262323;28;20280;-71
2021/09/26 11:51:12;;;;;;;1.65;0.80;;;;;;;16.24;51.55;102353.94;6261037;28;20185;-73
2021/09/26 11:54:17;;;;;;;2.08;0.60;;;;;;;16.28;52.56;102355.16;6260960;28;20212;-72
2021/09/26 11:57:22;;;;;;;0.63;0.55;;;;;;;16.31;52.18;102358.56;6261908;28;20255;-70
2021/09/26 12:00:28;;;;;;;0.70;0.70;;;;;;;16.24;52.50;102359.44;6261152;28;20411;-73
2021/09/26 12:03:33;;;;;;;1.20;0.50;;;;;;;16.34;52.83;102358.09;6260918;28;20547;-73
2021/09/26 12:06:41;;;;;;;0.60;0.60;;;;;;;16.32;53.54;102354.72;6261083;28;20189;-71
2021/09/26 12:09:47;;;;;;;0.57;0.57;;;;;;;16.28;54.00;102366.19;6260931;28;20184;-73
2021/09/26 12:12:52;;;;;;;0.68;0.68;;;;;;;16.39;52.68;102363.81;6261817;28;20304;-71
2021/09/26 12:15:56;;;;;;;0.95;0.70;;;;;;;16.35;53.30;102376.34;6260947;28;20243;-71
2021/09/26 12:19:00;;;;;;;0.70;0.70;;;;;;;16.43;50.73;102363.19;6260840;28;20439;-71
2021/09/26 12:22:09;;;;;;;3.58;3.28;;;;;;;16.49;52.47;102362.28;6262109;28;20194;-71
2021/09/26 12:25:27;;;;;;;1.92;1.92;;;;;;;16.41;53.82;102367.22;6260704;28;20213;-72
2021/09/26 12:28:32;;;;;;;0.70;0.70;;;;;;;16.40;50.90;102363.59;6261198;28;20284;-73
2021/09/26 12:31:37;;;;;;;0.70;0.57;;;;;;;16.45;50.46;102371.22;6260659;28;20481;-73
2021/09/26 12:34:45;;;;;;;0.60;0.60;;;;;;;16.55;50.42;102377.97;6260684;28;20251;-71
2021/09/26 12:37:53;;;;;;;0.50;0.50;;;;;;;16.50;51.26;102371.41;6260513;28;20481;-72
2021/09/26 12:41:02;;;;;;;0.70;0.70;;;;;;;16.55;50.65;102377.13;6262031;28;20252;-71
2021/09/26 12:44:10;;;;;;;0.60;0.60;;;;;;;16.49;52.85;102372.44;6261952;28;20212;-71
2021/09/26 12:47:19;;;;;;;6.47;1.20;;;;;;;16.63;50.47;102382.38;6261702;28;20192;-71
2021/09/26 12:50:25;;;;;;;14.75;1.60;;;;;;;16.66;51.68;102379.19;6260591;28;20377;-71
2021/09/26 12:53:38;;;;;;;4.05;0.60;;;;;;;16.70;50.21;102380.44;6262704;28;20189;-71
2021/09/26 12:56:47;;;;;;;0.70;0.70;;;;;;;16.76;49.47;102385.06;6265792;28;20307;-71
2021/09/26 12:59:53;;;;;;;0.55;0.55;;;;;;;16.79;49.44;102379.13;6265598;28;20223;-71
2021/09/26 13:03:00;;;;;;;0.50;0.50;;;;;;;16.82;49.85;102368.50;6265007;28;20519;-71
2021/09/26 13:06:06;;;;;;;1.02;0.70;;;;;;;16.85;49.12;102381.84;6264880;28;20440;-71
2021/09/26 13:09:15;;;;;;;0.68;0.68;;;;;;;16.88;48.45;102375.03;6264477;28;20544;-71
2021/09/26 13:12:29;;;;;;;0.60;0.60;;;;;;;16.88;48.78;102383.31;6264300;28;20507;-71
2021/09/26 13:15:33;;;;;;;1.35;0.60;;;;;;;16.99;47.03;102374.34;6265344;28;20228;-71
2021/09/26 13:18:37;;;;;;;2.22;0.55;;;;;;;16.98;47.56;102380.91;6264231;28;20248;-72
2021/09/26 13:21:41;;;;;;;44.92;24.98;;;;;;;16.97;47.38;102387.50;6264884;28;20196;-72
2021/09/26 13:24:48;;;;;;;3.60;2.47;;;;;;;17.00;47.87;102387.03;6265310;28;20224;-72
2021/09/26 13:28:00;;;;;;;1.40;0.85;;;;;;;17.00;48.39;102376.00;6265372;28;20255;-74
2021/09/26 13:31:15;;;;;;;1.65;0.65;;;;;;;17.02;49.38;102384.06;6264784;28;20185;-74
2021/09/26 13:34:29;;;;;;;0.65;0.65;;;;;;;17.97;47.08;102383.69;6265192;28;20235;-72
2021/09/26 13:37:34;;;;;;;0.55;0.55;;;;;;;18.08;50.70;102377.41;6265025;28;20185;-72
2021/09/26 13:40:40;;;;;;;1.65;0.60;;;;;;;17.95;47.45;102374.81;6264119;28;20484;-73
2021/09/26 13:43:57;;;;;;;0.63;0.63;;;;;;;17.64;48.50;102374.91;6263722;28;20539;-72
2021/09/26 13:47:01;;;;;;;0.55;0.55;;;;;;;17.40;49.84;102371.91;6265052;28;20248;-72
2021/09/26 13:50:07;;;;;;;0.50;0.50;;;;;;;17.76;49.22;102375.84;6264116;28;20191;-72
2021/09/26 13:53:15;;;;;;;0.60;0.60;;;;;;;18.44;46.84;102380.16;6263392;28;20421;-72
2021/09/26 13:56:19;;;;;;;0.50;0.50;;;;;;;18.16;47.74;102379.84;6264835;28;20196;-72
2021/09/26 13:59:28;;;;;;;0.60;0.60;;;;;;;17.59;49.15;102370.03;6263449;28;20531;-72
2021/09/26 14:02:32;;;;;;;0.52;0.52;;;;;;;17.62;48.69;102377.03;6264656;28;20290;-72
2021/09/26 14:05:36;;;;;;;0.60;0.60;;;;;;;17.46;49.87;102395.81;6263111;28;20275;-72
2021/09/26 14:08:41;;;;;;;0.55;0.55;;;;;;;17.65;52.93;102391.22;6263234;28;20466;-72
2021/09/26 14:11:45;;;;;;;1.30;0.70;;;;;;;17.50;51.06;102388.78;6263080;28;20558;-72
2021/09/26 14:14:50;;;;;;;0.80;0.80;;;;;;;18.85;47.90;102389.66;6264333;28;20188;-72
2021/09/26 14:17:55;;;;;;;0.50;0.50;;;;;;;18.82;47.81;102392.88;6262863;28;20489;-72
2021/09/26 14:21:01;;;;;;;0.80;0.80;;;;;;;17.90;50.03;102399.47;6262869;28;20443;-72
2021/09/26 14:24:05;;;;;;;0.60;0.60;;;;;;;17.80;48.82;102399.16;6263780;28;20213;-73
2021/09/26 14:27:10;;;;;;;12.20;10.23;;;;;;;17.56;49.89;102400.03;6262594;28;20208;-73
2021/09/26 14:30:16;;;;;;;29.73;18.90;;;;;;;17.14;53.46;102396.06;6263981;28;20228;-72
2021/09/26 14:33:20;;;;;;;1.83;1.73;;;;;;;17.10;50.01;102403.94;6262517;28;20471;-72